Norah Head Lighthouse, Australia
Current Conditions -  °F | °C
As of 11:30 AM on Tuesday 21 Oct 2014 (Local Time) from YWLM Reporting Station
Broken Clouds Broken Clouds  
Wind Chill: 64°   Ceiling: 5000
Heat Index: 64°   Visibility: 6mi
Dew Point: 43°   Wind: 12mph
Humidity: 45%   Direction: 110°ESE
Pressure: 30.48"   Gusts: NA
Location:  33.27°S, 151.57°E
Report Text: YWLM 210030Z 11010KT 9999 SCT025 BKN050 18/06 Q1032
Loading
Personal Weather Stations






























Interactive Weather Map
Tropical Storm Tracking
New forecast layout! Learn more

10-Day Weather Forecast

Advertisements
Track Severe Weather on mobile